sensor_id;sensor_type;location;lat;lon;timestamp;pressure;altitude;pressure_sealevel;temperature;humidity
61870;BME280;47810;42.264;23.826;2023-05-02T00:01:54;94199.97;;;9.94;70.86
61870;BME280;47810;42.264;23.826;2023-05-02T00:04:20;94209.91;;;10.04;71.11
61870;BME280;47810;42.264;23.826;2023-05-02T00:06:47;94198.16;;;10.10;72.27
61870;BME280;47810;42.264;23.826;2023-05-02T00:09:12;94196.78;;;10.19;72.15
61870;BME280;47810;42.264;23.826;2023-05-02T00:11:40;94201.38;;;10.31;71.81
61870;BME280;47810;42.264;23.826;2023-05-02T00:14:05;94195.19;;;10.46;70.17
61870;BME280;47810;42.264;23.826;2023-05-02T00:16:31;94198.28;;;10.23;71.52
61870;BME280;47810;42.264;23.826;2023-05-02T00:18:56;94203.56;;;10.23;72.22
61870;BME280;47810;42.264;23.826;2023-05-02T00:21:22;94206.38;;;10.36;71.35
61870;BME280;47810;42.264;23.826;2023-05-02T00:23:47;94207.97;;;10.38;70.67
61870;BME280;47810;42.264;23.826;2023-05-02T00:26:15;94216.38;;;10.15;72.47
61870;BME280;47810;42.264;23.826;2023-05-02T00:28:40;94212.78;;;10.16;72.85
61870;BME280;47810;42.264;23.826;2023-05-02T00:31:06;94214.28;;;10.20;72.52
61870;BME280;47810;42.264;23.826;2023-05-02T00:33:31;94220.25;;;10.23;72.84
61870;BME280;47810;42.264;23.826;2023-05-02T00:35:57;94216.63;;;10.56;70.49
61870;BME280;47810;42.264;23.826;2023-05-02T00:38:22;94224.53;;;10.26;72.58
61870;BME280;47810;42.264;23.826;2023-05-02T00:40:48;94217.72;;;10.22;73.24
61870;BME280;47810;42.264;23.826;2023-05-02T00:43:15;94224.34;;;10.13;73.31
61870;BME280;47810;42.264;23.826;2023-05-02T00:45:41;94228.19;;;10.08;73.26
61870;BME280;47810;42.264;23.826;2023-05-02T00:48:08;94234.91;;;10.13;72.00
61870;BME280;47810;42.264;23.826;2023-05-02T00:50:38;94235.47;;;9.88;72.20
61870;BME280;47810;42.264;23.826;2023-05-02T00:53:05;94244.44;;;9.70;73.15
61870;BME280;47810;42.264;23.826;2023-05-02T00:55:31;94249.75;;;9.52;73.92
61870;BME280;47810;42.264;23.826;2023-05-02T00:57:58;94242.28;;;9.61;74.81
61870;BME280;47810;42.264;23.826;2023-05-02T01:00:28;94233.78;;;9.71;75.03
61870;BME280;47810;42.264;23.826;2023-05-02T01:03:02;94239.38;;;9.81;74.06
61870;BME280;47810;42.264;23.826;2023-05-02T01:05:33;94240.56;;;9.91;74.22
61870;BME280;47810;42.264;23.826;2023-05-02T01:13:25;94232.03;;;10.18;74.08
61870;BME280;47810;42.264;23.826;2023-05-02T01:15:52;94231.38;;;9.98;73.93
61870;BME280;47810;42.264;23.826;2023-05-02T01:18:21;94231.13;;;9.87;75.24
61870;BME280;47810;42.264;23.826;2023-05-02T01:20:49;94229.00;;;9.78;74.21
61870;BME280;47810;42.264;23.826;2023-05-02T01:23:20;94233.28;;;9.65;74.84
61870;BME280;47810;42.264;23.826;2023-05-02T01:25:55;94227.50;;;9.74;75.35
61870;BME280;47810;42.264;23.826;2023-05-02T01:28:58;94222.78;;;9.79;74.51
61870;BME280;47810;42.264;23.826;2023-05-02T01:31:17;94227.66;;;9.87;73.54
61870;BME280;47810;42.264;23.826;2023-05-02T01:33:43;94227.66;;;9.71;75.01
61870;BME280;47810;42.264;23.826;2023-05-02T01:36:10;94228.44;;;9.89;75.67
61870;BME280;47810;42.264;23.826;2023-05-02T01:38:37;94228.84;;;9.81;75.45
61870;BME280;47810;42.264;23.826;2023-05-02T01:41:04;94224.34;;;9.51;75.05
61870;BME280;47810;42.264;23.826;2023-05-02T01:43:34;94229.59;;;9.36;75.83
61870;BME280;47810;42.264;23.826;2023-05-02T01:46:00;94233.41;;;9.30;75.96
61870;BME280;47810;42.264;23.826;2023-05-02T01:48:28;94236.56;;;9.37;77.09
61870;BME280;47810;42.264;23.826;2023-05-02T01:50:54;94234.19;;;9.32;77.74
61870;BME280;47810;42.264;23.826;2023-05-02T01:53:21;94237.16;;;9.26;77.76
61870;BME280;47810;42.264;23.826;2023-05-02T01:55:48;94225.09;;;9.22;78.02
61870;BME280;47810;42.264;23.826;2023-05-02T01:58:15;94231.06;;;9.25;79.14
61870;BME280;47810;42.264;23.826;2023-05-02T02:00:41;94220.31;;;9.13;78.44
61870;BME280;47810;42.264;23.826;2023-05-02T02:03:09;94228.47;;;9.08;79.55
61870;BME280;47810;42.264;23.826;2023-05-02T02:05:36;94224.03;;;8.93;79.68
61870;BME280;47810;42.264;23.826;2023-05-02T02:08:02;94226.28;;;9.16;80.65
61870;BME280;47810;42.264;23.826;2023-05-02T02:10:28;94231.91;;;9.26;80.53
61870;BME280;47810;42.264;23.826;2023-05-02T02:12:59;94228.47;;;9.24;80.16
61870;BME280;47810;42.264;23.826;2023-05-02T02:15:28;94230.38;;;9.22;79.71
61870;BME280;47810;42.264;23.826;2023-05-02T02:20:21;94223.38;;;9.21;79.73
61870;BME280;47810;42.264;23.826;2023-05-02T02:22:47;94225.34;;;9.33;79.53
61870;BME280;47810;42.264;23.826;2023-05-02T02:25:14;94224.06;;;9.24;80.09
61870;BME280;47810;42.264;23.826;2023-05-02T02:27:40;94226.97;;;9.20;79.43
61870;BME280;47810;42.264;23.826;2023-05-02T02:30:07;94224.16;;;9.39;79.88
61870;BME280;47810;42.264;23.826;2023-05-02T02:32:33;94223.31;;;9.38;79.71
61870;BME280;47810;42.264;23.826;2023-05-02T02:34:58;94226.97;;;9.20;78.61
61870;BME280;47810;42.264;23.826;2023-05-02T02:37:34;94222.09;;;8.96;79.30
61870;BME280;47810;42.264;23.826;2023-05-02T02:42:32;94225.34;;;8.84;78.01
61870;BME280;47810;42.264;23.826;2023-05-02T02:52:35;94221.31;;;8.94;81.09
61870;BME280;47810;42.264;23.826;2023-05-02T02:55:11;94221.78;;;8.85;81.30
61870;BME280;47810;42.264;23.826;2023-05-02T02:57:46;94225.63;;;8.95;81.36
61870;BME280;47810;42.264;23.826;2023-05-02T03:00:19;94234.03;;;8.86;80.90
61870;BME280;47810;42.264;23.826;2023-05-02T03:02:46;94231.41;;;9.02;80.83
61870;BME280;47810;42.264;23.826;2023-05-02T03:05:12;94224.09;;;8.91;80.12
61870;BME280;47810;42.264;23.826;2023-05-02T03:07:39;94230.66;;;8.49;79.50
61870;BME280;47810;42.264;23.826;2023-05-02T03:10:04;94235.66;;;8.38;80.08
61870;BME280;47810;42.264;23.826;2023-05-02T03:12:31;94244.28;;;8.57;79.14
61870;BME280;47810;42.264;23.826;2023-05-02T03:15:22;94235.00;;;8.50;79.30
61870;BME280;47810;42.264;23.826;2023-05-02T03:17:44;94242.53;;;8.22;79.86
61870;BME280;47810;42.264;23.826;2023-05-02T03:20:10;94241.03;;;8.35;79.68
61870;BME280;47810;42.264;23.826;2023-05-02T03:22:35;94245.81;;;8.27;79.61
61870;BME280;47810;42.264;23.826;2023-05-02T03:25:01;94240.66;;;8.43;78.89
61870;BME280;47810;42.264;23.826;2023-05-02T03:27:27;94253.72;;;8.44;80.55
61870;BME280;47810;42.264;23.826;2023-05-02T03:29:53;94254.91;;;8.38;79.63
61870;BME280;47810;42.264;23.826;2023-05-02T03:32:18;94254.34;;;8.32;79.01
61870;BME280;47810;42.264;23.826;2023-05-02T03:34:44;94252.41;;;8.35;81.37
61870;BME280;47810;42.264;23.826;2023-05-02T03:37:11;94253.69;;;8.27;80.45
61870;BME280;47810;42.264;23.826;2023-05-02T03:39:36;94261.44;;;8.30;80.68
61870;BME280;47810;42.264;23.826;2023-05-02T03:42:02;94268.50;;;8.47;80.84
61870;BME280;47810;42.264;23.826;2023-05-02T03:44:27;94271.00;;;8.50;80.76
61870;BME280;47810;42.264;23.826;2023-05-02T03:46:53;94265.19;;;8.60;81.16
61870;BME280;47810;42.264;23.826;2023-05-02T03:49:18;94265.25;;;8.59;81.03
61870;BME280;47810;42.264;23.826;2023-05-02T03:51:44;94271.44;;;8.75;81.91
61870;BME280;47810;42.264;23.826;2023-05-02T03:54:09;94270.19;;;8.82;81.69
61870;BME280;47810;42.264;23.826;2023-05-02T03:56:35;94266.84;;;8.96;81.63
61870;BME280;47810;42.264;23.826;2023-05-02T03:59:01;94271.97;;;8.99;81.31
61870;BME280;47810;42.264;23.826;2023-05-02T04:01:28;94270.56;;;8.92;81.12
61870;BME280;47810;42.264;23.826;2023-05-02T04:03:53;94272.13;;;8.96;80.81
61870;BME280;47810;42.264;23.826;2023-05-02T04:06:20;94272.03;;;8.98;80.71
61870;BME280;47810;42.264;23.826;2023-05-02T04:08:46;94270.34;;;8.97;79.99
61870;BME280;47810;42.264;23.826;2023-05-02T04:11:12;94277.28;;;8.98;79.02
61870;BME280;47810;42.264;23.826;2023-05-02T04:13:38;94276.56;;;9.12;79.16
61870;BME280;47810;42.264;23.826;2023-05-02T04:16:03;94267.75;;;9.13;78.74
61870;BME280;47810;42.264;23.826;2023-05-02T04:18:29;94269.59;;;9.10;78.56
61870;BME280;47810;42.264;23.826;2023-05-02T04:20:55;94276.00;;;9.22;78.22
61870;BME280;47810;42.264;23.826;2023-05-02T04:23:20;94276.94;;;9.37;78.23
61870;BME280;47810;42.264;23.826;2023-05-02T04:25:49;94276.94;;;9.37;78.07
61870;BME280;47810;42.264;23.826;2023-05-02T04:28:15;94273.41;;;9.38;77.58
61870;BME280;47810;42.264;23.826;2023-05-02T04:30:41;94281.72;;;9.46;76.95
61870;BME280;47810;42.264;23.826;2023-05-02T04:33:06;94278.34;;;9.44;76.59
61870;BME280;47810;42.264;23.826;2023-05-02T04:35:31;94282.50;;;9.48;76.22
61870;BME280;47810;42.264;23.826;2023-05-02T04:37:57;94281.56;;;9.65;75.79
61870;BME280;47810;42.264;23.826;2023-05-02T04:40:23;94283.69;;;9.59;75.68
61870;BME280;47810;42.264;23.826;2023-05-02T04:42:48;94286.16;;;9.62;75.42
61870;BME280;47810;42.264;23.826;2023-05-02T04:45:14;94277.91;;;9.68;75.81
61870;BME280;47810;42.264;23.826;2023-05-02T04:47:39;94271.88;;;9.66;75.63
61870;BME280;47810;42.264;23.826;2023-05-02T04:50:05;94278.69;;;9.70;75.15
61870;BME280;47810;42.264;23.826;2023-05-02T04:52:31;94278.00;;;9.82;74.93
61870;BME280;47810;42.264;23.826;2023-05-02T04:54:57;94274.94;;;9.90;74.54
61870;BME280;47810;42.264;23.826;2023-05-02T04:57:22;94284.31;;;9.95;73.33
61870;BME280;47810;42.264;23.826;2023-05-02T04:59:48;94281.91;;;9.91;73.76
61870;BME280;47810;42.264;23.826;2023-05-02T05:02:13;94277.66;;;10.04;72.70
61870;BME280;47810;42.264;23.826;2023-05-02T05:04:39;94280.38;;;10.02;73.03
61870;BME280;47810;42.264;23.826;2023-05-02T05:07:04;94283.59;;;10.08;72.53
61870;BME280;47810;42.264;23.826;2023-05-02T05:09:30;94286.84;;;10.13;71.94
61870;BME280;47810;42.264;23.826;2023-05-02T05:11:55;94289.69;;;10.24;71.19
61870;BME280;47810;42.264;23.826;2023-05-02T05:14:21;94287.34;;;10.19;70.60
61870;BME280;47810;42.264;23.826;2023-05-02T05:16:46;94294.75;;;10.13;70.81
61870;BME280;47810;42.264;23.826;2023-05-02T05:19:12;94290.25;;;10.15;70.09
61870;BME280;47810;42.264;23.826;2023-05-02T05:21:37;94285.16;;;10.12;70.16
61870;BME280;47810;42.264;23.826;2023-05-02T05:24:03;94276.72;;;10.21;69.29
61870;BME280;47810;42.264;23.826;2023-05-02T05:26:29;94284.47;;;10.08;70.09
61870;BME280;47810;42.264;23.826;2023-05-02T05:28:54;94288.53;;;10.14;69.44
61870;BME280;47810;42.264;23.826;2023-05-02T05:31:20;94282.75;;;10.07;70.04
61870;BME280;47810;42.264;23.826;2023-05-02T05:33:46;94286.22;;;10.08;70.04
61870;BME280;47810;42.264;23.826;2023-05-02T05:36:12;94290.06;;;10.18;69.24
61870;BME280;47810;42.264;23.826;2023-05-02T05:38:39;94296.38;;;10.15;69.84
61870;BME280;47810;42.264;23.826;2023-05-02T05:41:04;94286.84;;;10.13;69.79
61870;BME280;47810;42.264;23.826;2023-05-02T05:43:30;94296.38;;;10.31;69.45
61870;BME280;47810;42.264;23.826;2023-05-02T05:45:56;94305.03;;;10.33;69.89
61870;BME280;47810;42.264;23.826;2023-05-02T05:48:21;94298.50;;;10.40;69.73
61870;BME280;47810;42.264;23.826;2023-05-02T05:50:47;94301.81;;;10.44;69.01
61870;BME280;47810;42.264;23.826;2023-05-02T05:53:13;94309.97;;;10.39;69.03
61870;BME280;47810;42.264;23.826;2023-05-02T05:55:39;94308.63;;;10.32;69.16
61870;BME280;47810;42.264;23.826;2023-05-02T05:58:04;94310.47;;;10.46;68.63
61870;BME280;47810;42.264;23.826;2023-05-02T06:00:32;94303.84;;;10.39;68.89
61870;BME280;47810;42.264;23.826;2023-05-02T06:02:58;94317.19;;;10.52;68.90
61870;BME280;47810;42.264;23.826;2023-05-02T06:05:23;94309.09;;;10.55;69.31
61870;BME280;47810;42.264;23.826;2023-05-02T06:07:49;94318.31;;;10.47;70.00
61870;BME280;47810;42.264;23.826;2023-05-02T06:10:14;94315.75;;;10.46;70.18
61870;BME280;47810;42.264;23.826;2023-05-02T06:12:40;94314.00;;;10.46;70.01
61870;BME280;47810;42.264;23.826;2023-05-02T06:15:06;94317.38;;;10.48;70.22
61870;BME280;47810;42.264;23.826;2023-05-02T06:17:31;94316.75;;;10.59;70.56
61870;BME280;47810;42.264;23.826;2023-05-02T06:19:57;94315.16;;;10.57;70.66
61870;BME280;47810;42.264;23.826;2023-05-02T06:22:25;94312.81;;;10.66;70.64
61870;BME280;47810;42.264;23.826;2023-05-02T06:24:50;94312.28;;;10.76;70.37
61870;BME280;47810;42.264;23.826;2023-05-02T06:27:16;94305.91;;;10.94;70.20
61870;BME280;47810;42.264;23.826;2023-05-02T06:29:42;94310.81;;;11.00;70.58
61870;BME280;47810;42.264;23.826;2023-05-02T06:32:07;94309.63;;;11.20;70.05
61870;BME280;47810;42.264;23.826;2023-05-02T06:34:35;94309.47;;;11.37;69.41
61870;BME280;47810;42.264;23.826;2023-05-02T06:37:00;94312.28;;;11.49;68.93
61870;BME280;47810;42.264;23.826;2023-05-02T06:39:26;94311.81;;;11.71;68.38
61870;BME280;47810;42.264;23.826;2023-05-02T06:41:57;94311.03;;;11.83;68.03
61870;BME280;47810;42.264;23.826;2023-05-02T06:44:23;94314.06;;;12.05;67.06
61870;BME280;47810;42.264;23.826;2023-05-02T06:46:48;94308.25;;;12.13;65.71
61870;BME280;47810;42.264;23.826;2023-05-02T06:49:14;94299.28;;;12.16;65.96
61870;BME280;47810;42.264;23.826;2023-05-02T06:51:40;94302.22;;;12.38;65.44
61870;BME280;47810;42.264;23.826;2023-05-02T06:54:06;94303.16;;;12.64;64.59
61870;BME280;47810;42.264;23.826;2023-05-02T06:56:33;94305.88;;;12.50;64.28
61870;BME280;47810;42.264;23.826;2023-05-02T06:58:58;94299.34;;;12.55;64.39
61870;BME280;47810;42.264;23.826;2023-05-02T07:01:24;94302.16;;;12.79;64.07
61870;BME280;47810;42.264;23.826;2023-05-02T07:03:50;94299.19;;;12.97;63.76
61870;BME280;47810;42.264;23.826;2023-05-02T07:06:17;94296.91;;;13.05;63.82
61870;BME280;47810;42.264;23.826;2023-05-02T07:08:43;94300.41;;;13.18;63.12
61870;BME280;47810;42.264;23.826;2023-05-02T07:11:08;94305.13;;;13.27;62.56
61870;BME280;47810;42.264;23.826;2023-05-02T07:13:34;94298.56;;;13.46;62.30
61870;BME280;47810;42.264;23.826;2023-05-02T07:15:59;94304.16;;;13.54;62.44
61870;BME280;47810;42.264;23.826;2023-05-02T07:18:25;94302.44;;;13.79;61.66
61870;BME280;47810;42.264;23.826;2023-05-02T07:20:50;94301.56;;;13.91;61.46
61870;BME280;47810;42.264;23.826;2023-05-02T07:23:16;94297.13;;;14.15;60.88
61870;BME280;47810;42.264;23.826;2023-05-02T07:25:42;94295.53;;;14.26;59.96
61870;BME280;47810;42.264;23.826;2023-05-02T07:28:08;94299.94;;;14.38;59.42
61870;BME280;47810;42.264;23.826;2023-05-02T07:30:33;94301.19;;;14.45;59.04
61870;BME280;47810;42.264;23.826;2023-05-02T07:32:59;94304.47;;;14.49;58.83
61870;BME280;47810;42.264;23.826;2023-05-02T07:35:24;94304.34;;;14.50;58.43
61870;BME280;47810;42.264;23.826;2023-05-02T07:37:50;94301.91;;;14.84;58.34
61870;BME280;47810;42.264;23.826;2023-05-02T07:40:15;94297.59;;;15.05;57.93
61870;BME280;47810;42.264;23.826;2023-05-02T07:42:41;94297.13;;;15.11;57.12
61870;BME280;47810;42.264;23.826;2023-05-02T07:45:07;94298.16;;;15.33;56.70
61870;BME280;47810;42.264;23.826;2023-05-02T07:47:32;94291.53;;;15.50;56.11
61870;BME280;47810;42.264;23.826;2023-05-02T07:49:58;94301.72;;;15.56;55.91
61870;BME280;47810;42.264;23.826;2023-05-02T07:52:23;94298.50;;;15.75;54.98
61870;BME280;47810;42.264;23.826;2023-05-02T07:54:50;94299.44;;;16.07;54.30
61870;BME280;47810;42.264;23.826;2023-05-02T07:57:16;94313.97;;;16.26;53.55
61870;BME280;47810;42.264;23.826;2023-05-02T07:59:41;94304.50;;;16.33;52.71
61870;BME280;47810;42.264;23.826;2023-05-02T08:02:07;94310.03;;;16.64;52.63
61870;BME280;47810;42.264;23.826;2023-05-02T08:04:33;94306.50;;;16.63;52.50
61870;BME280;47810;42.264;23.826;2023-05-02T08:06:58;94311.91;;;16.84;52.34
61870;BME280;47810;42.264;23.826;2023-05-02T08:09:24;94303.06;;;16.84;51.91
61870;BME280;47810;42.264;23.826;2023-05-02T08:11:50;94310.16;;;16.94;52.37
61870;BME280;47810;42.264;23.826;2023-05-02T08:14:16;94308.25;;;16.85;50.29
61870;BME280;47810;42.264;23.826;2023-05-02T08:16:42;94309.03;;;16.65;51.83
61870;BME280;47810;42.264;23.826;2023-05-02T08:19:07;94307.72;;;17.03;52.52
61870;BME280;47810;42.264;23.826;2023-05-02T08:21:33;94300.06;;;17.30;51.00
61870;BME280;47810;42.264;23.826;2023-05-02T08:23:59;94302.25;;;17.67;50.32
61870;BME280;47810;42.264;23.826;2023-05-02T08:26:24;94300.97;;;17.61;49.36
61870;BME280;47810;42.264;23.826;2023-05-02T08:28:51;94304.22;;;17.65;50.39
61870;BME280;47810;42.264;23.826;2023-05-02T08:31:16;94304.16;;;18.07;50.97
61870;BME280;47810;42.264;23.826;2023-05-02T08:33:42;94307.97;;;18.45;49.80
61870;BME280;47810;42.264;23.826;2023-05-02T08:36:11;94310.53;;;18.56;46.89
61870;BME280;47810;42.264;23.826;2023-05-02T08:38:37;94310.09;;;18.51;47.59
61870;BME280;47810;42.264;23.826;2023-05-02T08:41:08;94311.34;;;18.47;47.80
61870;BME280;47810;42.264;23.826;2023-05-02T08:43:34;94299.19;;;18.33;46.75
61870;BME280;47810;42.264;23.826;2023-05-02T08:46:00;94307.66;;;18.38;47.94
61870;BME280;47810;42.264;23.826;2023-05-02T08:48:27;94302.06;;;18.51;46.48
61870;BME280;47810;42.264;23.826;2023-05-02T08:50:53;94301.16;;;18.21;47.31
61870;BME280;47810;42.264;23.826;2023-05-02T08:53:19;94303.28;;;17.97;48.78
61870;BME280;47810;42.264;23.826;2023-05-02T08:55:45;94294.25;;;18.28;47.99
61870;BME280;47810;42.264;23.826;2023-05-02T08:58:11;94287.38;;;18.35;44.88
61870;BME280;47810;42.264;23.826;2023-05-02T09:00:38;94289.09;;;18.36;45.68
61870;BME280;47810;42.264;23.826;2023-05-02T09:05:41;94296.25;;;18.86;43.76
61870;BME280;47810;42.264;23.826;2023-05-02T09:08:07;94308.34;;;19.00;43.79
61870;BME280;47810;42.264;23.826;2023-05-02T09:10:33;94299.63;;;18.78;42.78
61870;BME280;47810;42.264;23.826;2023-05-02T09:13:43;94297.00;;;18.48;44.27
61870;BME280;47810;42.264;23.826;2023-05-02T09:16:11;94302.72;;;18.83;44.53
61870;BME280;47810;42.264;23.826;2023-05-02T09:18:36;94295.19;;;18.58;40.56
61870;BME280;47810;42.264;23.826;2023-05-02T09:21:20;94294.72;;;18.33;41.69
61870;BME280;47810;42.264;23.826;2023-05-02T09:23:47;94295.84;;;18.00;43.15
61870;BME280;47810;42.264;23.826;2023-05-02T09:26:16;94295.59;;;18.44;42.85
61870;BME280;47810;42.264;23.826;2023-05-02T09:28:43;94284.00;;;19.22;42.29
61870;BME280;47810;42.264;23.826;2023-05-02T09:31:10;94292.44;;;19.47;41.70
61870;BME280;47810;42.264;23.826;2023-05-02T09:33:37;94289.50;;;19.21;41.92
61870;BME280;47810;42.264;23.826;2023-05-02T09:36:03;94292.91;;;18.44;41.92
61870;BME280;47810;42.264;23.826;2023-05-02T09:38:29;94292.53;;;18.08;42.30
61870;BME280;47810;42.264;23.826;2023-05-02T09:40:54;94291.78;;;18.06;43.85
61870;BME280;47810;42.264;23.826;2023-05-02T09:43:20;94277.97;;;18.01;43.57
61870;BME280;47810;42.264;23.826;2023-05-02T09:45:56;94287.25;;;17.97;43.28
61870;BME280;47810;42.264;23.826;2023-05-02T09:48:21;94281.72;;;18.19;43.75
61870;BME280;47810;42.264;23.826;2023-05-02T09:50:47;94283.75;;;18.36;43.03
61870;BME280;47810;42.264;23.826;2023-05-02T09:53:12;94285.38;;;18.18;43.44
61870;BME280;47810;42.264;23.826;2023-05-02T09:55:38;94279.84;;;18.60;43.86
61870;BME280;47810;42.264;23.826;2023-05-02T09:58:04;94268.34;;;19.27;43.43
61870;BME280;47810;42.264;23.826;2023-05-02T10:00:38;94279.63;;;19.21;41.80
61870;BME280;47810;42.264;23.826;2023-05-02T10:03:05;94281.53;;;18.61;42.13
61870;BME280;47810;42.264;23.826;2023-05-02T10:05:32;94279.94;;;18.49;43.36
61870;BME280;47810;42.264;23.826;2023-05-02T10:07:58;94277.22;;;18.29;43.21
61870;BME280;47810;42.264;23.826;2023-05-02T10:10:25;94280.91;;;18.28;44.13
61870;BME280;47810;42.264;23.826;2023-05-02T10:12:51;94270.28;;;18.57;44.43
61870;BME280;47810;42.264;23.826;2023-05-02T10:15:18;94266.97;;;19.23;42.61
61870;BME280;47810;42.264;23.826;2023-05-02T10:17:47;94266.50;;;19.38;41.54
61870;BME280;47810;42.264;23.826;2023-05-02T10:20:13;94260.34;;;19.94;42.56
61870;BME280;47810;42.264;23.826;2023-05-02T10:22:41;94251.13;;;20.34;41.00
61870;BME280;47810;42.264;23.826;2023-05-02T10:25:07;94262.72;;;20.24;38.51
61870;BME280;47810;42.264;23.826;2023-05-02T10:27:33;94254.97;;;20.21;39.74
61870;BME280;47810;42.264;23.826;2023-05-02T10:29:59;94253.56;;;20.55;39.44
61870;BME280;47810;42.264;23.826;2023-05-02T10:32:28;94244.16;;;20.68;39.23
61870;BME280;47810;42.264;23.826;2023-05-02T10:34:57;94249.81;;;20.83;38.24
61870;BME280;47810;42.264;23.826;2023-05-02T10:37:26;94239.84;;;20.48;37.61
61870;BME280;47810;42.264;23.826;2023-05-02T10:39:54;94247.50;;;20.53;36.53
61870;BME280;47810;42.264;23.826;2023-05-02T10:42:19;94249.81;;;20.38;36.96
61870;BME280;47810;42.264;23.826;2023-05-02T10:44:45;94246.81;;;20.41;39.39
61870;BME280;47810;42.264;23.826;2023-05-02T10:47:22;94245.75;;;20.34;38.28
61870;BME280;47810;42.264;23.826;2023-05-02T10:49:54;94246.97;;;20.67;38.00
61870;BME280;47810;42.264;23.826;2023-05-02T10:52:30;94238.94;;;21.21;37.29
61870;BME280;47810;42.264;23.826;2023-05-02T10:55:13;94228.03;;;21.40;36.07
61870;BME280;47810;42.264;23.826;2023-05-02T11:00:29;94225.84;;;21.61;37.46
61870;BME280;47810;42.264;23.826;2023-05-02T11:02:56;94227.94;;;21.76;37.49
61870;BME280;47810;42.264;23.826;2023-05-02T11:05:22;94233.72;;;21.37;36.58
61870;BME280;47810;42.264;23.826;2023-05-02T11:08:29;94230.78;;;21.48;35.23
61870;BME280;47810;42.264;23.826;2023-05-02T11:10:51;94224.41;;;21.31;34.33
61870;BME280;47810;42.264;23.826;2023-05-02T11:13:26;94224.81;;;20.83;36.23
61870;BME280;47810;42.264;23.826;2023-05-02T11:16:02;94220.34;;;21.27;38.06
61870;BME280;47810;42.264;23.826;2023-05-02T11:18:32;94219.16;;;20.86;35.86
61870;BME280;47810;42.264;23.826;2023-05-02T11:21:26;94226.38;;;21.03;35.68
61870;BME280;47810;42.264;23.826;2023-05-02T11:24:58;94223.91;;;21.54;38.08
61870;BME280;47810;42.264;23.826;2023-05-02T11:26:52;94210.53;;;21.88;34.65
61870;BME280;47810;42.264;23.826;2023-05-02T11:30:11;94203.13;;;22.16;35.18
61870;BME280;47810;42.264;23.826;2023-05-02T11:35:16;94217.72;;;22.14;34.33
61870;BME280;47810;42.264;23.826;2023-05-02T11:37:42;94205.56;;;22.01;33.92
61870;BME280;47810;42.264;23.826;2023-05-02T11:40:11;94208.59;;;22.06;35.00
61870;BME280;47810;42.264;23.826;2023-05-02T11:42:37;94218.44;;;21.90;33.82
61870;BME280;47810;42.264;23.826;2023-05-02T11:45:02;94218.09;;;21.58;33.72
61870;BME280;47810;42.264;23.826;2023-05-02T11:47:31;94212.34;;;21.53;34.93
61870;BME280;47810;42.264;23.826;2023-05-02T11:49:56;94211.66;;;21.33;34.61
61870;BME280;47810;42.264;23.826;2023-05-02T11:52:23;94216.25;;;21.59;34.33
61870;BME280;47810;42.264;23.826;2023-05-02T11:54:52;94198.88;;;22.14;34.22
61870;BME280;47810;42.264;23.826;2023-05-02T11:57:18;94191.94;;;22.37;33.38
61870;BME280;47810;42.264;23.826;2023-05-02T11:59:53;94182.59;;;22.66;32.63
61870;BME280;47810;42.264;23.826;2023-05-02T12:02:19;94189.56;;;22.34;34.13
61870;BME280;47810;42.264;23.826;2023-05-02T12:04:48;94178.56;;;22.70;34.15
61870;BME280;47810;42.264;23.826;2023-05-02T12:07:14;94175.84;;;22.62;33.13
61870;BME280;47810;42.264;23.826;2023-05-02T12:09:52;94174.53;;;22.74;33.80
61870;BME280;47810;42.264;23.826;2023-05-02T12:12:20;94161.38;;;22.63;33.59
61870;BME280;47810;42.264;23.826;2023-05-02T12:14:46;94159.44;;;22.97;32.82
61870;BME280;47810;42.264;23.826;2023-05-02T12:17:12;94164.47;;;23.00;34.16
61870;BME280;47810;42.264;23.826;2023-05-02T12:19:38;94167.19;;;23.25;33.03
61870;BME280;47810;42.264;23.826;2023-05-02T12:22:03;94159.91;;;23.42;31.91
61870;BME280;47810;42.264;23.826;2023-05-02T12:24:30;94151.66;;;23.35;32.19
61870;BME280;47810;42.264;23.826;2023-05-02T12:27:14;94155.19;;;23.44;31.78
61870;BME280;47810;42.264;23.826;2023-05-02T12:29:44;94141.19;;;22.59;30.00
61870;BME280;47810;42.264;23.826;2023-05-02T12:32:10;94147.91;;;22.38;30.60
61870;BME280;47810;42.264;23.826;2023-05-02T12:34:36;94135.50;;;22.70;30.78
61870;BME280;47810;42.264;23.826;2023-05-02T12:37:02;94140.16;;;22.35;30.45
61870;BME280;47810;42.264;23.826;2023-05-02T12:39:34;94132.47;;;22.65;31.82
61870;BME280;47810;42.264;23.826;2023-05-02T12:42:07;94122.34;;;22.59;31.41
61870;BME280;47810;42.264;23.826;2023-05-02T12:44:37;94116.66;;;22.94;31.15
61870;BME280;47810;42.264;23.826;2023-05-02T12:47:03;94118.66;;;22.84;29.48
61870;BME280;47810;42.264;23.826;2023-05-02T12:49:28;94114.09;;;22.52;29.80
61870;BME280;47810;42.264;23.826;2023-05-02T12:51:54;94121.97;;;22.37;29.52
61870;BME280;47810;42.264;23.826;2023-05-02T12:54:22;94122.00;;;22.45;31.71
61870;BME280;47810;42.264;23.826;2023-05-02T12:56:48;94108.59;;;22.70;29.93
61870;BME280;47810;42.264;23.826;2023-05-02T12:59:29;94116.31;;;23.14;30.31
61870;BME280;47810;42.264;23.826;2023-05-02T13:01:55;94106.41;;;23.06;29.90
61870;BME280;47810;42.264;23.826;2023-05-02T13:04:20;94110.25;;;22.71;29.66
61870;BME280;47810;42.264;23.826;2023-05-02T13:06:46;94112.94;;;22.54;30.26
61870;BME280;47810;42.264;23.826;2023-05-02T13:09:11;94110.25;;;22.71;29.67
61870;BME280;47810;42.264;23.826;2023-05-02T13:11:37;94108.91;;;22.83;29.99
61870;BME280;47810;42.264;23.826;2023-05-02T13:14:03;94111.31;;;23.02;29.56
61870;BME280;47810;42.264;23.826;2023-05-02T13:16:30;94116.66;;;22.94;29.63
61870;BME280;47810;42.264;23.826;2023-05-02T13:18:57;94100.16;;;22.48;29.56
61870;BME280;47810;42.264;23.826;2023-05-02T13:21:23;94123.38;;;22.66;29.49